createdAt,value
2022-09-07T00:01:03.267Z,17.38
2022-09-07T00:03:30.807Z,17.35
2022-09-07T00:05:58.049Z,17.22
2022-09-07T00:08:29.617Z,17.27
2022-09-07T00:11:05.411Z,17.40
2022-09-07T00:13:37.756Z,17.27
2022-09-07T00:16:12.844Z,17.23
2022-09-07T00:18:43.801Z,17.08
2022-09-07T00:21:16.759Z,16.99
2022-09-07T00:23:45.136Z,16.92
2022-09-07T00:26:20.081Z,16.92
2022-09-07T00:28:47.821Z,16.88
2022-09-07T00:31:23.079Z,16.69
2022-09-07T00:33:52.934Z,16.72
2022-09-07T00:36:22.460Z,16.77
2022-09-07T00:38:50.009Z,16.70
2022-09-07T00:41:19.046Z,16.69
2022-09-07T00:43:51.696Z,16.65
2022-09-07T00:46:33.954Z,16.66
2022-09-07T00:49:19.745Z,16.59
2022-09-07T00:52:02.474Z,16.51
2022-09-07T00:54:52.474Z,16.44
2022-09-07T00:57:21.133Z,16.51
2022-09-07T00:59:52.843Z,16.49
2022-09-07T01:02:20.323Z,16.37
2022-09-07T01:04:56.770Z,16.37
2022-09-07T01:07:23.917Z,16.35
2022-09-07T01:09:51.965Z,16.36
2022-09-07T01:12:18.938Z,16.17
2022-09-07T01:14:52.896Z,16.06
2022-09-07T01:17:47.903Z,16.15
2022-09-07T01:20:34.275Z,15.97
2022-09-07T01:23:43.947Z,15.89
2022-09-07T01:26:59.736Z,15.76
2022-09-07T01:30:06.117Z,15.76
2022-09-07T01:32:49.946Z,15.77
2022-09-07T01:35:39.421Z,15.86
2022-09-07T01:38:24.617Z,15.98
2022-09-07T01:41:32.169Z,15.98
2022-09-07T01:44:46.772Z,15.99
2022-09-07T01:47:53.742Z,15.97
2022-09-07T01:50:45.721Z,15.89
2022-09-07T01:53:19.827Z,15.93
2022-09-07T01:55:56.932Z,15.92
2022-09-07T01:58:46.823Z,15.97
2022-09-07T02:01:33.207Z,16.01
2022-09-07T02:04:30.231Z,16.07
2022-09-07T02:07:07.313Z,15.87
2022-09-07T02:10:03.159Z,15.82
2022-09-07T02:13:02.050Z,15.65
2022-09-07T02:16:06.786Z,15.56
2022-09-07T02:18:44.638Z,15.57
2022-09-07T02:21:17.658Z,15.60
2022-09-07T02:24:25.437Z,15.68
2022-09-07T02:26:54.417Z,15.66
2022-09-07T02:29:22.066Z,15.58
2022-09-07T02:31:50.027Z,15.46
2022-09-07T02:34:17.140Z,15.46
2022-09-07T02:36:50.951Z,15.48
2022-09-07T02:39:18.262Z,15.35
2022-09-07T02:41:46.665Z,15.22
2022-09-07T02:44:23.767Z,15.34
2022-09-07T02:47:36.803Z,15.39
2022-09-07T02:50:47.193Z,15.44
2022-09-07T02:54:04.578Z,15.28
2022-09-07T02:57:02.200Z,15.12
2022-09-07T03:00:05.584Z,15.02
2022-09-07T03:03:15.945Z,15.08
2022-09-07T03:06:29.022Z,15.11
2022-09-07T03:09:01.837Z,15.07
2022-09-07T03:11:29.857Z,15.16
2022-09-07T03:14:19.854Z,15.13
2022-09-07T03:16:50.367Z,14.96
2022-09-07T03:19:18.185Z,14.96
2022-09-07T03:21:45.649Z,15.05
2022-09-07T03:24:12.858Z,14.85
2022-09-07T03:26:46.112Z,14.90
2022-09-07T03:29:15.690Z,14.86
2022-09-07T03:31:42.807Z,14.77
2022-09-07T03:34:11.450Z,14.72
2022-09-07T03:36:38.895Z,14.67
2022-09-07T03:39:07.343Z,14.54
2022-09-07T03:41:34.910Z,14.57
2022-09-07T03:44:07.430Z,14.52
2022-09-07T03:46:35.141Z,14.54
2022-09-07T03:49:02.423Z,14.39
2022-09-07T03:51:29.531Z,14.39
2022-09-07T03:53:57.238Z,14.45
2022-09-07T03:56:26.012Z,14.42
2022-09-07T03:58:55.268Z,14.50
2022-09-07T04:01:26.059Z,14.54
2022-09-07T04:04:01.770Z,14.51
2022-09-07T04:06:30.275Z,14.66
2022-09-07T04:09:00.784Z,14.63
2022-09-07T04:11:27.782Z,14.59
2022-09-07T04:13:54.741Z,14.64
2022-09-07T04:16:26.512Z,14.65
2022-09-07T04:18:54.821Z,14.58
2022-09-07T04:21:24.051Z,14.62
2022-09-07T04:23:52.608Z,14.62
2022-09-07T04:26:32.795Z,14.67
2022-09-07T04:29:01.169Z,14.67
2022-09-07T04:31:28.299Z,14.63
2022-09-07T04:33:56.370Z,14.62
2022-09-07T04:36:26.789Z,14.59
2022-09-07T04:39:01.386Z,14.57
2022-09-07T04:41:31.706Z,14.64
2022-09-07T04:44:02.151Z,14.62
2022-09-07T04:46:34.464Z,14.64
2022-09-07T04:49:08.263Z,14.73
2022-09-07T04:51:36.587Z,14.73
2022-09-07T04:54:04.383Z,14.63
2022-09-07T04:56:32.939Z,14.68
2022-09-07T04:59:01.974Z,14.73
2022-09-07T05:01:29.887Z,14.67
2022-09-07T05:03:59.071Z,14.75
2022-09-07T05:06:26.137Z,14.63
2022-09-07T05:08:54.533Z,14.69
2022-09-07T05:11:28.647Z,14.70
2022-09-07T05:14:01.143Z,14.74
2022-09-07T05:16:29.800Z,14.69
2022-09-07T05:19:02.950Z,14.78
2022-09-07T05:21:35.110Z,14.89
2022-09-07T05:24:04.439Z,14.83
2022-09-07T05:26:35.972Z,14.83
2022-09-07T05:31:53.182Z,15.01
2022-09-07T05:34:35.794Z,15.14
2022-09-07T05:37:03.153Z,15.14
2022-09-07T05:39:30.869Z,15.20
2022-09-07T05:41:58.029Z,15.23
2022-09-07T05:47:07.916Z,15.19
2022-09-07T05:49:35.008Z,15.34
2022-09-07T05:52:02.512Z,15.45
2022-09-07T05:54:29.577Z,15.52
2022-09-07T05:56:56.720Z,15.47
2022-09-07T05:59:23.753Z,15.49
2022-09-07T06:01:50.995Z,15.66
2022-09-07T06:04:18.463Z,15.79
2022-09-07T06:06:59.278Z,15.71
2022-09-07T06:09:34.393Z,15.93
2022-09-07T06:12:05.284Z,16.01
2022-09-07T06:14:35.510Z,16.13
2022-09-07T06:17:02.640Z,16.19
2022-09-07T06:19:29.669Z,16.17
2022-09-07T06:21:56.619Z,16.31
2022-09-07T06:24:23.640Z,16.41
2022-09-07T06:26:50.657Z,16.36
2022-09-07T06:29:20.590Z,16.36
2022-09-07T06:34:34.691Z,16.57
2022-09-07T06:37:01.774Z,16.68
2022-09-07T06:39:28.833Z,16.61
2022-09-07T06:41:58.942Z,16.95
2022-09-07T06:44:26.100Z,17.13
2022-09-07T06:47:08.537Z,17.01
2022-09-07T06:49:35.573Z,17.13
2022-09-07T06:52:03.737Z,16.95
2022-09-07T06:57:17.730Z,16.94
2022-09-07T06:59:44.715Z,16.92
2022-09-07T07:02:15.850Z,17.09
2022-09-07T07:04:42.890Z,17.06
2022-09-07T07:07:14.365Z,17.28
2022-09-07T07:09:42.467Z,17.36
2022-09-07T07:12:10.831Z,17.25
2022-09-07T07:14:40.931Z,17.43
2022-09-07T07:17:13.123Z,17.35
2022-09-07T07:19:40.293Z,17.42
2022-09-07T07:22:23.850Z,17.45
2022-09-07T07:24:54.352Z,17.69
2022-09-07T07:27:22.020Z,18.01
2022-09-07T07:29:49.713Z,17.81
2022-09-07T07:32:19.311Z,18.04
2022-09-07T07:34:46.252Z,18.00
2022-09-07T07:37:14.411Z,17.77
2022-09-07T07:42:29.508Z,17.93
2022-09-07T07:47:43.523Z,17.98
2022-09-07T07:55:45.443Z,18.75
2022-09-07T07:58:12.982Z,18.87
2022-09-07T08:00:53.879Z,18.92
2022-09-07T08:03:23.533Z,18.98
2022-09-07T08:05:51.046Z,19.26
2022-09-07T08:08:19.186Z,19.10
2022-09-07T08:10:47.622Z,19.14
2022-09-07T08:13:16.763Z,19.50
2022-09-07T08:15:46.925Z,19.85
2022-09-07T08:18:16.893Z,19.70
2022-09-07T08:20:44.557Z,19.91
2022-09-07T08:23:11.812Z,19.83
2022-09-07T08:25:39.037Z,19.71
2022-09-07T08:28:06.115Z,19.96
2022-09-07T08:30:33.071Z,19.70
2022-09-07T08:33:00.078Z,19.73
2022-09-07T08:35:27.069Z,20.28
2022-09-07T08:37:54.269Z,20.50
2022-09-07T08:40:21.229Z,20.71
2022-09-07T08:43:03.202Z,20.58
2022-09-07T08:45:44.089Z,21.17
2022-09-07T08:48:16.706Z,21.35
2022-09-07T08:51:07.268Z,21.19
2022-09-07T08:53:43.375Z,21.54
2022-09-07T08:56:33.750Z,21.30
2022-09-07T08:59:23.973Z,21.43
2022-09-07T09:05:16.155Z,21.34
2022-09-07T09:07:49.851Z,21.37
2022-09-07T09:11:07.380Z,21.71
2022-09-07T09:14:24.204Z,22.15
2022-09-07T09:17:37.960Z,22.46
2022-09-07T09:20:33.185Z,22.04
2022-09-07T09:23:17.431Z,22.36
2022-09-07T09:25:56.273Z,22.76
2022-09-07T09:28:25.555Z,21.60
2022-09-07T09:30:54.844Z,21.66
2022-09-07T09:33:28.862Z,22.35
2022-09-07T09:36:00.326Z,22.58
2022-09-07T09:38:39.424Z,23.32
2022-09-07T09:41:13.797Z,23.49
2022-09-07T09:43:56.105Z,23.81
2022-09-07T09:46:37.492Z,23.13
2022-09-07T09:49:23.703Z,22.97
2022-09-07T09:54:49.044Z,23.68
2022-09-07T10:00:36.948Z,23.96
2022-09-07T10:06:19.458Z,23.61
2022-09-07T10:09:02.032Z,23.73
2022-09-07T10:12:08.532Z,24.26
2022-09-07T10:14:44.526Z,24.88
2022-09-07T10:17:35.540Z,24.91
2022-09-07T10:20:22.568Z,24.31
2022-09-07T10:22:52.253Z,24.31
2022-09-07T10:25:45.565Z,24.72
2022-09-07T10:28:18.416Z,25.32
2022-09-07T10:31:32.825Z,24.66
2022-09-07T10:34:34.004Z,25.02
2022-09-07T10:37:19.289Z,25.25
2022-09-07T10:40:05.967Z,25.64
2022-09-07T10:43:20.828Z,25.19
2022-09-07T10:49:25.446Z,27.09
2022-09-07T10:52:18.312Z,25.89
2022-09-07T10:55:07.839Z,26.49
2022-09-07T10:57:58.169Z,25.72
2022-09-07T11:00:27.410Z,25.53
2022-09-07T11:03:51.293Z,24.97
2022-09-07T11:06:43.118Z,24.75
2022-09-07T11:09:37.682Z,25.29
2022-09-07T11:12:10.865Z,25.75
2022-09-07T11:14:56.049Z,25.59
2022-09-07T11:17:29.054Z,26.20
2022-09-07T11:20:25.158Z,25.85
2022-09-07T11:23:44.769Z,25.74
2022-09-07T11:26:32.310Z,25.85
2022-09-07T11:29:33.648Z,26.33
2022-09-07T11:32:28.809Z,25.97
2022-09-07T11:35:16.830Z,26.30
2022-09-07T11:37:59.394Z,26.17
2022-09-07T11:40:39.430Z,25.67
2022-09-07T11:43:47.099Z,25.96
2022-09-07T11:46:32.662Z,25.83
2022-09-07T11:48:59.930Z,26.62
2022-09-07T11:52:22.191Z,26.86
2022-09-07T11:55:00.067Z,26.18
2022-09-07T11:58:27.990Z,26.81
2022-09-07T12:01:54.083Z,27.09
2022-09-07T12:05:15.866Z,27.13
2022-09-07T12:08:39.921Z,26.98
2022-09-07T12:11:50.045Z,25.92
2022-09-07T12:14:41.534Z,25.48
2022-09-07T12:17:59.046Z,25.41
2022-09-07T12:20:48.504Z,25.70
2022-09-07T12:23:15.249Z,26.24
2022-09-07T12:25:48.533Z,25.33
2022-09-07T12:28:24.127Z,25.99
2022-09-07T12:31:04.586Z,26.56
2022-09-07T12:33:37.415Z,25.71
2022-09-07T12:36:25.924Z,26.09
2022-09-07T12:39:30.611Z,27.22
2022-09-07T12:45:30.964Z,26.81
2022-09-07T12:48:04.548Z,26.22
2022-09-07T12:51:00.670Z,26.30
2022-09-07T12:54:27.613Z,26.61
2022-09-07T12:57:32.153Z,27.72
2022-09-07T13:00:50.994Z,27.50
2022-09-07T13:04:06.444Z,26.72
2022-09-07T13:07:33.686Z,26.16
2022-09-07T13:10:04.592Z,27.23
2022-09-07T13:12:56.815Z,27.09
2022-09-07T13:16:01.076Z,26.69
2022-09-07T13:18:28.252Z,26.73
2022-09-07T13:21:07.020Z,26.23
2022-09-07T13:23:39.524Z,26.44
2022-09-07T13:26:11.751Z,25.83
2022-09-07T13:28:56.321Z,25.88
2022-09-07T13:35:28.812Z,25.46
2022-09-07T13:38:03.502Z,25.76
2022-09-07T13:40:45.188Z,25.92
2022-09-07T13:43:24.567Z,25.84
2022-09-07T13:45:54.572Z,26.10
2022-09-07T13:48:43.977Z,26.22
2022-09-07T13:51:31.051Z,26.15
2022-09-07T13:54:28.375Z,26.70
2022-09-07T13:57:22.026Z,27.21
2022-09-07T13:59:51.668Z,27.24
2022-09-07T14:02:32.330Z,27.34
2022-09-07T14:05:00.928Z,28.15
2022-09-07T14:07:30.871Z,27.10
2022-09-07T14:10:21.970Z,27.30
2022-09-07T14:13:11.594Z,27.25
2022-09-07T14:15:47.131Z,28.44
2022-09-07T14:18:31.114Z,27.42
2022-09-07T14:20:58.786Z,27.79
2022-09-07T14:23:34.880Z,27.65
2022-09-07T14:26:23.261Z,26.85
2022-09-07T14:28:54.882Z,26.84
2022-09-07T14:31:25.231Z,26.77
2022-09-07T14:33:58.864Z,26.50
2022-09-07T14:36:46.448Z,26.25
2022-09-07T14:39:18.165Z,26.27
2022-09-07T14:41:45.855Z,27.03
2022-09-07T14:44:43.027Z,26.92
2022-09-07T14:47:33.974Z,26.26
2022-09-07T14:50:06.213Z,26.20
2022-09-07T14:53:33.247Z,26.31
2022-09-07T14:55:42.895Z,26.20
2022-09-07T14:58:15.830Z,25.84
2022-09-07T15:04:00.767Z,26.03
2022-09-07T15:09:38.580Z,26.15
2022-09-07T15:12:36.059Z,25.81
2022-09-07T15:15:37.184Z,25.53
2022-09-07T15:18:51.757Z,25.77
2022-09-07T15:21:19.403Z,25.93
2022-09-07T15:23:51.272Z,26.15
2022-09-07T15:29:10.872Z,25.80
2022-09-07T15:31:41.980Z,25.91
2022-09-07T15:34:15.824Z,25.75
2022-09-07T15:36:50.633Z,25.95
2022-09-07T15:39:26.306Z,26.52
2022-09-07T15:41:53.755Z,26.52
2022-09-07T15:44:26.533Z,25.90
2022-09-07T15:49:47.642Z,25.91
2022-09-07T15:52:17.750Z,26.13
2022-09-07T15:54:44.995Z,25.89
2022-09-07T15:59:59.000Z,25.50
2022-09-07T16:05:13.662Z,25.39
2022-09-07T16:10:31.645Z,25.18
2022-09-07T16:13:01.766Z,25.22
2022-09-07T16:15:31.489Z,25.20
2022-09-07T16:17:58.638Z,25.37
2022-09-07T16:20:31.970Z,25.05
2022-09-07T16:23:15.910Z,25.21
2022-09-07T16:25:57.518Z,25.08
2022-09-07T16:28:25.586Z,24.89
2022-09-07T16:30:52.556Z,24.87
2022-09-07T16:33:19.659Z,24.58
2022-09-07T16:35:59.506Z,24.70
2022-09-07T16:38:44.459Z,24.89
2022-09-07T16:41:29.069Z,24.66
2022-09-07T16:43:57.188Z,24.48
2022-09-07T16:46:30.995Z,24.49
2022-09-07T16:48:58.072Z,24.32
2022-09-07T16:51:25.442Z,24.41
2022-09-07T16:53:56.438Z,24.23
2022-09-07T16:56:27.271Z,24.25
2022-09-07T16:59:02.537Z,24.31
2022-09-07T17:01:37.609Z,24.00
2022-09-07T17:04:10.295Z,23.95
2022-09-07T17:06:39.841Z,23.94
2022-09-07T17:09:07.441Z,23.78
2022-09-07T17:11:36.502Z,23.77
2022-09-07T17:14:06.473Z,23.66
2022-09-07T17:16:38.646Z,23.53
2022-09-07T17:21:55.459Z,23.26
2022-09-07T17:24:24.352Z,23.17
2022-09-07T17:26:51.332Z,23.26
2022-09-07T17:29:18.345Z,23.27
2022-09-07T17:34:32.531Z,23.03
2022-09-07T17:37:00.743Z,23.05
2022-09-07T17:39:29.368Z,23.16
2022-09-07T17:41:56.669Z,23.16
2022-09-07T17:44:23.778Z,23.24
2022-09-07T17:46:51.190Z,23.39
2022-09-07T17:49:18.732Z,23.30
2022-09-07T17:51:46.468Z,23.14
2022-09-07T17:54:17.312Z,23.06
2022-09-07T17:56:45.497Z,23.07
2022-09-07T18:02:00.898Z,22.80
2022-09-07T18:04:28.737Z,22.76
2022-09-07T18:06:55.769Z,22.87
2022-09-07T18:09:22.745Z,22.90
2022-09-07T18:11:50.696Z,22.82
2022-09-07T18:14:19.247Z,22.75
2022-09-07T18:16:49.824Z,22.80
2022-09-07T18:19:18.645Z,22.67
2022-09-07T18:21:47.630Z,22.60
2022-09-07T18:24:23.993Z,22.51
2022-09-07T18:26:53.248Z,22.22
2022-09-07T18:29:34.054Z,22.21
2022-09-07T18:32:08.299Z,22.20
2022-09-07T18:34:38.595Z,22.29
2022-09-07T18:37:06.750Z,22.04
2022-09-07T18:39:35.374Z,22.11
2022-09-07T18:42:02.632Z,22.06
2022-09-07T18:47:23.326Z,21.58
2022-09-07T18:49:55.099Z,21.21
2022-09-07T18:55:09.906Z,21.15
2022-09-07T18:57:37.188Z,21.00
2022-09-07T19:00:08.047Z,20.92
2022-09-07T19:02:35.735Z,20.88
2022-09-07T19:07:50.409Z,20.99
2022-09-07T19:10:17.711Z,21.08
2022-09-07T19:12:46.042Z,21.18
2022-09-07T19:15:13.980Z,21.07
2022-09-07T19:17:40.926Z,21.29
2022-09-07T19:20:08.906Z,21.30
2022-09-07T19:22:35.820Z,21.16
2022-09-07T19:25:02.775Z,21.18
2022-09-07T19:27:32.749Z,21.02
2022-09-07T19:29:59.827Z,21.09
2022-09-07T19:32:26.767Z,20.98
2022-09-07T19:34:54.635Z,20.93
2022-09-07T19:37:27.250Z,20.93
2022-09-07T19:39:58.803Z,21.03
2022-09-07T19:42:27.318Z,20.91
2022-09-07T19:44:57.183Z,20.90
2022-09-07T19:47:24.306Z,20.65
2022-09-07T19:49:52.226Z,20.64
2022-09-07T19:52:19.265Z,20.73
2022-09-07T19:54:46.226Z,20.49
2022-09-07T19:57:13.164Z,20.61
2022-09-07T19:59:40.103Z,20.55
2022-09-07T20:02:08.727Z,20.51
2022-09-07T20:04:35.817Z,20.54
2022-09-07T20:07:03.304Z,20.46
2022-09-07T20:09:30.622Z,20.55
2022-09-07T20:11:57.649Z,20.48
2022-09-07T20:14:24.618Z,20.48
2022-09-07T20:16:51.567Z,20.32
2022-09-07T20:19:20.834Z,20.46
2022-09-07T20:21:48.891Z,20.24
2022-09-07T20:24:21.998Z,20.28
2022-09-07T20:26:49.386Z,20.32
2022-09-07T20:29:28.109Z,20.43
2022-09-07T20:31:59.188Z,20.39
2022-09-07T20:34:27.990Z,20.41
2022-09-07T20:36:55.536Z,20.38
2022-09-07T20:39:22.864Z,20.23
2022-09-07T20:41:49.962Z,20.15
2022-09-07T20:44:17.294Z,20.21
2022-09-07T20:46:44.363Z,20.08
2022-09-07T20:49:11.465Z,20.12
2022-09-07T20:51:38.776Z,20.14
2022-09-07T20:54:06.967Z,20.07
2022-09-07T20:56:34.568Z,20.14
2022-09-07T20:59:03.906Z,20.04
2022-09-07T21:01:35.349Z,19.96
2022-09-07T21:04:03.980Z,19.89
2022-09-07T21:06:32.743Z,19.87
2022-09-07T21:09:00.576Z,19.82
2022-09-07T21:11:35.102Z,19.75
2022-09-07T21:14:13.266Z,19.65
2022-09-07T21:16:40.740Z,19.60
2022-09-07T21:19:11.000Z,19.53
2022-09-07T21:21:42.036Z,19.62
2022-09-07T21:24:25.754Z,19.67
2022-09-07T21:26:52.732Z,19.38
2022-09-07T21:29:26.929Z,19.44
2022-09-07T21:31:56.476Z,19.37
2022-09-07T21:34:23.774Z,19.29
2022-09-07T21:36:51.344Z,19.31
2022-09-07T21:39:19.149Z,19.18
2022-09-07T21:41:46.357Z,19.13
2022-09-07T21:44:16.197Z,19.16
2022-09-07T21:46:46.550Z,18.99
2022-09-07T21:49:16.323Z,19.04
2022-09-07T21:51:45.719Z,19.14
2022-09-07T21:54:12.669Z,19.12
2022-09-07T21:56:46.522Z,19.11
2022-09-07T21:59:13.965Z,19.14
2022-09-07T22:01:41.049Z,19.12
2022-09-07T22:04:08.622Z,19.24
2022-09-07T22:06:37.746Z,19.24
2022-09-07T22:09:05.266Z,19.09
2022-09-07T22:11:32.744Z,19.22
2022-09-07T22:14:03.920Z,19.23
2022-09-07T22:16:33.925Z,19.14
2022-09-07T22:19:01.389Z,19.08
2022-09-07T22:21:30.407Z,19.05
2022-09-07T22:24:04.809Z,18.97
2022-09-07T22:26:39.775Z,19.08
2022-09-07T22:29:10.393Z,18.95
2022-09-07T22:31:39.883Z,18.75
2022-09-07T22:34:09.112Z,18.76
2022-09-07T22:36:41.617Z,18.77
2022-09-07T22:39:18.807Z,18.75
2022-09-07T22:41:47.424Z,18.75
2022-09-07T22:44:18.463Z,18.77
2022-09-07T22:46:47.335Z,18.61
2022-09-07T22:49:16.871Z,18.68
2022-09-07T22:51:44.918Z,18.62
2022-09-07T22:54:12.021Z,18.57
2022-09-07T22:56:39.780Z,18.61
2022-09-07T22:59:09.423Z,18.69
2022-09-07T23:01:37.116Z,18.57
2022-09-07T23:04:05.480Z,18.56
2022-09-07T23:06:38.193Z,18.43
2022-09-07T23:09:13.155Z,18.41
2022-09-07T23:11:41.255Z,18.46
2022-09-07T23:14:19.062Z,18.31
2022-09-07T23:16:46.699Z,18.34
2022-09-07T23:19:16.458Z,18.17
2022-09-07T23:21:44.383Z,18.29
2022-09-07T23:24:18.581Z,18.14
2022-09-07T23:26:46.865Z,18.24
2022-09-07T23:29:15.595Z,18.18
2022-09-07T23:31:43.018Z,18.16
2022-09-07T23:34:10.090Z,18.22
2022-09-07T23:36:37.417Z,18.09
2022-09-07T23:39:04.788Z,18.16
2022-09-07T23:41:31.764Z,18.15
2022-09-07T23:43:59.245Z,18.09
2022-09-07T23:46:26.368Z,17.96
2022-09-07T23:48:53.386Z,17.94
2022-09-07T23:51:24.202Z,17.85
2022-09-07T23:53:52.719Z,17.83
2022-09-07T23:56:21.888Z,17.80
2022-09-07T23:58:48.831Z,17.76
